sensor_id;sensor_type;location;lat;lon;timestamp;P1;P2;P0
30713;PMS7003;17465;47.934;33.430;2023-04-08T00:00:25;27.75;25.25;16.25
30713;PMS7003;17465;47.934;33.430;2023-04-08T00:02:56;30.50;27.50;15.75
30713;PMS7003;17465;47.934;33.430;2023-04-08T00:05:27;27.25;24.50;15.25
30713;PMS7003;17465;47.934;33.430;2023-04-08T00:07:58;29.25;27.75;16.50
30713;PMS7003;17465;47.934;33.430;2023-04-08T00:10:29;33.75;30.50;15.75
30713;PMS7003;17465;47.934;33.430;2023-04-08T00:13:00;29.75;26.25;14.50
30713;PMS7003;17465;47.934;33.430;2023-04-08T00:15:31;32.25;28.75;13.25
30713;PMS7003;17465;47.934;33.430;2023-04-08T00:18:03;35.50;34.00;19.75
30713;PMS7003;17465;47.934;33.430;2023-04-08T00:20:34;25.50;23.50;13.75
30713;PMS7003;17465;47.934;33.430;2023-04-08T00:23:04;29.50;25.00;12.75
30713;PMS7003;17465;47.934;33.430;2023-04-08T00:25:35;29.75;29.00;12.50
30713;PMS7003;17465;47.934;33.430;2023-04-08T00:28:06;25.25;22.75;13.75
30713;PMS7003;17465;47.934;33.430;2023-04-08T00:30:38;27.50;25.25;13.00
30713;PMS7003;17465;47.934;33.430;2023-04-08T00:33:08;35.50;31.50;16.75
30713;PMS7003;17465;47.934;33.430;2023-04-08T00:35:39;27.00;25.50;11.75
30713;PMS7003;17465;47.934;33.430;2023-04-08T00:38:09;24.75;23.50;13.00
30713;PMS7003;17465;47.934;33.430;2023-04-08T00:40:41;26.50;25.00;11.00
30713;PMS7003;17465;47.934;33.430;2023-04-08T00:43:12;28.50;25.75;14.25
30713;PMS7003;17465;47.934;33.430;2023-04-08T00:45:43;24.75;22.50;12.00
30713;PMS7003;17465;47.934;33.430;2023-04-08T00:48:15;20.00;19.00;8.75
30713;PMS7003;17465;47.934;33.430;2023-04-08T00:50:48;24.25;21.00;11.00
30713;PMS7003;17465;47.934;33.430;2023-04-08T00:53:19;25.25;24.50;15.50
30713;PMS7003;17465;47.934;33.430;2023-04-08T00:55:52;29.25;25.75;13.25
30713;PMS7003;17465;47.934;33.430;2023-04-08T00:58:23;24.50;24.00;12.75
30713;PMS7003;17465;47.934;33.430;2023-04-08T01:00:59;28.00;26.50;15.00
30713;PMS7003;17465;47.934;33.430;2023-04-08T01:06:37;30.00;25.00;12.75
30713;PMS7003;17465;47.934;33.430;2023-04-08T01:09:08;31.50;27.00;15.00
30713;PMS7003;17465;47.934;33.430;2023-04-08T01:11:42;25.50;22.00;11.75
30713;PMS7003;17465;47.934;33.430;2023-04-08T01:14:16;26.75;25.00;11.75
30713;PMS7003;17465;47.934;33.430;2023-04-08T01:16:48;26.00;23.00;11.50
30713;PMS7003;17465;47.934;33.430;2023-04-08T01:19:29;28.00;26.50;15.00
30713;PMS7003;17465;47.934;33.430;2023-04-08T01:22:02;28.25;27.25;16.00
30713;PMS7003;17465;47.934;33.430;2023-04-08T01:24:48;22.25;20.50;11.50
30713;PMS7003;17465;47.934;33.430;2023-04-08T01:27:21;27.50;25.00;15.00
30713;PMS7003;17465;47.934;33.430;2023-04-08T01:29:52;23.00;23.00;13.25
30713;PMS7003;17465;47.934;33.430;2023-04-08T01:32:25;27.00;23.75;12.50
30713;PMS7003;17465;47.934;33.430;2023-04-08T01:35:00;31.50;28.00;14.00
30713;PMS7003;17465;47.934;33.430;2023-04-08T01:37:31;26.25;25.25;12.25
30713;PMS7003;17465;47.934;33.430;2023-04-08T01:40:03;28.50;26.25;14.75
30713;PMS7003;17465;47.934;33.430;2023-04-08T01:42:36;29.00;26.50;15.00
30713;PMS7003;17465;47.934;33.430;2023-04-08T01:45:08;26.75;23.25;12.25
30713;PMS7003;17465;47.934;33.430;2023-04-08T01:47:39;25.75;24.50;14.00
30713;PMS7003;17465;47.934;33.430;2023-04-08T01:50:13;26.75;24.50;15.75
30713;PMS7003;17465;47.934;33.430;2023-04-08T01:52:46;25.50;24.50;15.00
30713;PMS7003;17465;47.934;33.430;2023-04-08T01:55:19;29.50;28.50;13.75
30713;PMS7003;17465;47.934;33.430;2023-04-08T01:57:51;29.75;24.00;15.50
30713;PMS7003;17465;47.934;33.430;2023-04-08T02:00:24;33.50;27.75;13.25
30713;PMS7003;17465;47.934;33.430;2023-04-08T02:02:59;25.75;24.75;13.75
30713;PMS7003;17465;47.934;33.430;2023-04-08T02:05:32;29.75;29.25;13.75
30713;PMS7003;17465;47.934;33.430;2023-04-08T02:08:03;30.50;27.00;13.25
30713;PMS7003;17465;47.934;33.430;2023-04-08T02:10:35;35.75;34.25;17.50
30713;PMS7003;17465;47.934;33.430;2023-04-08T02:13:06;26.00;26.00;14.50
30713;PMS7003;17465;47.934;33.430;2023-04-08T02:15:37;27.25;23.00;15.25
30713;PMS7003;17465;47.934;33.430;2023-04-08T02:18:20;33.00;30.50;16.25
30713;PMS7003;17465;47.934;33.430;2023-04-08T02:21:10;33.25;29.00;15.75
30713;PMS7003;17465;47.934;33.430;2023-04-08T02:23:44;31.50;29.75;17.50
30713;PMS7003;17465;47.934;33.430;2023-04-08T02:26:17;31.75;26.50;14.25
30713;PMS7003;17465;47.934;33.430;2023-04-08T02:28:48;34.00;29.50;16.00
30713;PMS7003;17465;47.934;33.430;2023-04-08T02:31:21;27.50;27.25;15.50
30713;PMS7003;17465;47.934;33.430;2023-04-08T02:33:54;26.50;24.00;13.75
30713;PMS7003;17465;47.934;33.430;2023-04-08T02:36:26;28.75;24.25;14.50
30713;PMS7003;17465;47.934;33.430;2023-04-08T02:38:56;27.25;25.25;13.75
30713;PMS7003;17465;47.934;33.430;2023-04-08T02:41:27;29.50;28.00;15.00
30713;PMS7003;17465;47.934;33.430;2023-04-08T02:43:58;31.25;25.25;15.50
30713;PMS7003;17465;47.934;33.430;2023-04-08T02:46:29;36.00;30.25;15.75
30713;PMS7003;17465;47.934;33.430;2023-04-08T02:49:00;33.00;31.50;17.00
30713;PMS7003;17465;47.934;33.430;2023-04-08T02:51:30;30.25;25.00;12.50
30713;PMS7003;17465;47.934;33.430;2023-04-08T02:54:01;26.25;26.00;15.50
30713;PMS7003;17465;47.934;33.430;2023-04-08T02:56:33;29.00;26.00;16.25
30713;PMS7003;17465;47.934;33.430;2023-04-08T02:59:04;28.75;26.25;16.50
30713;PMS7003;17465;47.934;33.430;2023-04-08T03:01:35;37.00;31.50;16.50
30713;PMS7003;17465;47.934;33.430;2023-04-08T03:04:06;20.00;18.75;9.75
30713;PMS7003;17465;47.934;33.430;2023-04-08T03:06:38;28.50;24.75;14.00
30713;PMS7003;17465;47.934;33.430;2023-04-08T03:09:09;30.25;26.50;15.50
30713;PMS7003;17465;47.934;33.430;2023-04-08T03:11:40;31.25;29.25;15.75
30713;PMS7003;17465;47.934;33.430;2023-04-08T03:14:13;29.75;26.50;16.75
30713;PMS7003;17465;47.934;33.430;2023-04-08T03:16:44;26.75;25.00;15.00
30713;PMS7003;17465;47.934;33.430;2023-04-08T03:19:15;21.75;21.75;15.75
30713;PMS7003;17465;47.934;33.430;2023-04-08T03:21:46;36.00;29.25;15.25
30713;PMS7003;17465;47.934;33.430;2023-04-08T03:24:16;40.00;33.75;18.25
30713;PMS7003;17465;47.934;33.430;2023-04-08T03:26:46;31.75;28.25;18.75
30713;PMS7003;17465;47.934;33.430;2023-04-08T03:29:18;36.75;33.00;17.25
30713;PMS7003;17465;47.934;33.430;2023-04-08T03:31:50;41.50;36.75;22.25
30713;PMS7003;17465;47.934;33.430;2023-04-08T03:34:21;56.75;46.50;28.00
30713;PMS7003;17465;47.934;33.430;2023-04-08T03:36:51;51.75;43.00;25.00
30713;PMS7003;17465;47.934;33.430;2023-04-08T03:39:22;47.75;40.00;25.25
30713;PMS7003;17465;47.934;33.430;2023-04-08T03:41:57;44.25;37.50;23.25
30713;PMS7003;17465;47.934;33.430;2023-04-08T03:44:27;43.00;36.50;21.25
30713;PMS7003;17465;47.934;33.430;2023-04-08T03:46:58;39.50;37.00;22.50
30713;PMS7003;17465;47.934;33.430;2023-04-08T03:49:29;42.25;37.25;23.75
30713;PMS7003;17465;47.934;33.430;2023-04-08T03:52:04;43.75;37.75;23.00
30713;PMS7003;17465;47.934;33.430;2023-04-08T03:54:34;46.75;39.00;23.00
30713;PMS7003;17465;47.934;33.430;2023-04-08T03:57:05;37.50;33.75;21.75
30713;PMS7003;17465;47.934;33.430;2023-04-08T03:59:36;49.75;39.50;23.25
30713;PMS7003;17465;47.934;33.430;2023-04-08T04:02:11;37.00;30.50;18.25
30713;PMS7003;17465;47.934;33.430;2023-04-08T04:04:42;42.75;37.25;22.50
30713;PMS7003;17465;47.934;33.430;2023-04-08T04:07:13;38.25;34.50;20.25
30713;PMS7003;17465;47.934;33.430;2023-04-08T04:09:45;38.75;34.00;18.50
30713;PMS7003;17465;47.934;33.430;2023-04-08T04:12:18;30.75;30.75;17.25
30713;PMS7003;17465;47.934;33.430;2023-04-08T04:14:49;33.75;31.25;18.00
30713;PMS7003;17465;47.934;33.430;2023-04-08T04:17:20;34.25;31.75;18.50
30713;PMS7003;17465;47.934;33.430;2023-04-08T04:19:50;29.75;28.75;17.25
30713;PMS7003;17465;47.934;33.430;2023-04-08T04:22:20;27.75;25.75;13.25
30713;PMS7003;17465;47.934;33.430;2023-04-08T04:24:51;26.25;24.75;15.25
30713;PMS7003;17465;47.934;33.430;2023-04-08T04:27:21;36.25;33.75;17.75
30713;PMS7003;17465;47.934;33.430;2023-04-08T04:29:51;17.25;11.00;0.00
30713;PMS7003;17465;47.934;33.430;2023-04-08T04:32:23;37.25;33.75;16.75
30713;PMS7003;17465;47.934;33.430;2023-04-08T04:34:54;37.00;32.75;20.25
30713;PMS7003;17465;47.934;33.430;2023-04-08T04:37:24;28.50;27.75;17.50
30713;PMS7003;17465;47.934;33.430;2023-04-08T04:39:55;26.75;25.50;16.50
30713;PMS7003;17465;47.934;33.430;2023-04-08T04:42:26;36.25;30.00;18.75
30713;PMS7003;17465;47.934;33.430;2023-04-08T04:44:56;36.50;33.00;17.50
30713;PMS7003;17465;47.934;33.430;2023-04-08T04:47:36;40.75;35.75;20.75
30713;PMS7003;17465;47.934;33.430;2023-04-08T04:50:03;35.25;33.75;17.00
30713;PMS7003;17465;47.934;33.430;2023-04-08T04:52:49;47.75;41.50;24.75
30713;PMS7003;17465;47.934;33.430;2023-04-08T04:55:22;31.50;31.00;18.00
30713;PMS7003;17465;47.934;33.430;2023-04-08T04:57:53;45.25;36.25;23.00
30713;PMS7003;17465;47.934;33.430;2023-04-08T05:00:23;45.25;39.50;23.25
30713;PMS7003;17465;47.934;33.430;2023-04-08T05:02:55;47.00;40.00;24.25
30713;PMS7003;17465;47.934;33.430;2023-04-08T05:05:26;44.50;36.00;22.75
30713;PMS7003;17465;47.934;33.430;2023-04-08T05:07:57;39.75;34.25;19.25
30713;PMS7003;17465;47.934;33.430;2023-04-08T05:10:28;45.50;38.00;24.00
30713;PMS7003;17465;47.934;33.430;2023-04-08T05:12:58;45.00;39.25;22.25
30713;PMS7003;17465;47.934;33.430;2023-04-08T05:15:29;35.75;34.50;21.00
30713;PMS7003;17465;47.934;33.430;2023-04-08T05:18:01;37.50;35.00;21.00
30713;PMS7003;17465;47.934;33.430;2023-04-08T05:20:32;42.00;37.00;22.50
30713;PMS7003;17465;47.934;33.430;2023-04-08T05:23:07;38.25;35.75;21.75
30713;PMS7003;17465;47.934;33.430;2023-04-08T05:25:38;40.50;36.25;21.25
30713;PMS7003;17465;47.934;33.430;2023-04-08T05:28:08;33.25;30.00;22.00
30713;PMS7003;17465;47.934;33.430;2023-04-08T05:30:41;35.75;33.50;20.00
30713;PMS7003;17465;47.934;33.430;2023-04-08T05:33:14;34.25;32.25;18.00
30713;PMS7003;17465;47.934;33.430;2023-04-08T05:35:44;42.75;36.25;20.00
30713;PMS7003;17465;47.934;33.430;2023-04-08T05:38:15;39.00;33.50;20.00
30713;PMS7003;17465;47.934;33.430;2023-04-08T05:40:48;38.75;33.50;21.50
30713;PMS7003;17465;47.934;33.430;2023-04-08T05:43:18;37.75;33.50;19.75
30713;PMS7003;17465;47.934;33.430;2023-04-08T05:45:52;38.25;35.00;21.00
30713;PMS7003;17465;47.934;33.430;2023-04-08T05:48:22;41.75;37.75;22.00
30713;PMS7003;17465;47.934;33.430;2023-04-08T05:50:54;39.50;36.25;22.75
30713;PMS7003;17465;47.934;33.430;2023-04-08T05:53:32;36.00;33.00;21.75
30713;PMS7003;17465;47.934;33.430;2023-04-08T05:56:03;41.75;36.00;22.00
30713;PMS7003;17465;47.934;33.430;2023-04-08T05:58:35;34.50;29.75;19.75
30713;PMS7003;17465;47.934;33.430;2023-04-08T06:01:05;34.25;32.50;18.75
30713;PMS7003;17465;47.934;33.430;2023-04-08T06:03:37;37.75;34.25;20.25
30713;PMS7003;17465;47.934;33.430;2023-04-08T06:06:10;37.00;35.00;18.75
30713;PMS7003;17465;47.934;33.430;2023-04-08T06:08:41;41.75;32.75;16.75
30713;PMS7003;17465;47.934;33.430;2023-04-08T06:11:13;35.75;33.25;21.25
30713;PMS7003;17465;47.934;33.430;2023-04-08T06:13:45;35.75;33.75;20.00
30713;PMS7003;17465;47.934;33.430;2023-04-08T06:16:16;39.75;34.50;19.50
30713;PMS7003;17465;47.934;33.430;2023-04-08T06:18:54;35.25;33.25;18.75
30713;PMS7003;17465;47.934;33.430;2023-04-08T06:21:21;34.00;30.25;18.25
30713;PMS7003;17465;47.934;33.430;2023-04-08T06:23:51;31.50;30.25;18.75
30713;PMS7003;17465;47.934;33.430;2023-04-08T06:26:23;29.50;25.50;18.00
30713;PMS7003;17465;47.934;33.430;2023-04-08T06:28:58;34.25;32.00;21.25
30713;PMS7003;17465;47.934;33.430;2023-04-08T06:31:34;26.25;25.75;15.00
30713;PMS7003;17465;47.934;33.430;2023-04-08T06:34:03;33.50;29.25;15.75
30713;PMS7003;17465;47.934;33.430;2023-04-08T06:36:36;30.50;28.75;14.50
30713;PMS7003;17465;47.934;33.430;2023-04-08T06:39:13;23.50;23.00;12.25
30713;PMS7003;17465;47.934;33.430;2023-04-08T06:41:43;31.25;29.25;16.50
30713;PMS7003;17465;47.934;33.430;2023-04-08T06:44:15;30.00;29.00;19.00
30713;PMS7003;17465;47.934;33.430;2023-04-08T06:46:46;30.00;27.25;19.75
30713;PMS7003;17465;47.934;33.430;2023-04-08T06:49:18;27.00;27.00;16.00
30713;PMS7003;17465;47.934;33.430;2023-04-08T06:52:01;23.75;22.00;14.50
30713;PMS7003;17465;47.934;33.430;2023-04-08T06:54:32;22.75;22.00;12.75
30713;PMS7003;17465;47.934;33.430;2023-04-08T06:57:03;34.50;31.00;19.75
30713;PMS7003;17465;47.934;33.430;2023-04-08T06:59:33;36.50;33.00;20.25
30713;PMS7003;17465;47.934;33.430;2023-04-08T07:02:04;35.25;32.75;20.25
30713;PMS7003;17465;47.934;33.430;2023-04-08T07:04:37;38.50;35.50;21.00
30713;PMS7003;17465;47.934;33.430;2023-04-08T07:07:07;37.75;34.25;20.25
30713;PMS7003;17465;47.934;33.430;2023-04-08T07:09:42;33.50;31.25;18.00
30713;PMS7003;17465;47.934;33.430;2023-04-08T07:12:13;28.50;25.75;15.50
30713;PMS7003;17465;47.934;33.430;2023-04-08T07:14:44;29.75;27.50;19.50
30713;PMS7003;17465;47.934;33.430;2023-04-08T07:17:15;31.00;30.75;20.25
30713;PMS7003;17465;47.934;33.430;2023-04-08T07:19:47;33.25;29.25;18.00
30713;PMS7003;17465;47.934;33.430;2023-04-08T07:22:20;43.25;34.25;20.25
30713;PMS7003;17465;47.934;33.430;2023-04-08T07:24:51;27.75;26.50;13.25
30713;PMS7003;17465;47.934;33.430;2023-04-08T07:27:23;31.00;29.75;19.25
30713;PMS7003;17465;47.934;33.430;2023-04-08T07:29:54;31.25;30.75;18.50
30713;PMS7003;17465;47.934;33.430;2023-04-08T07:32:27;28.25;27.50;16.00
30713;PMS7003;17465;47.934;33.430;2023-04-08T07:35:08;28.20;24.80;15.20
30713;PMS7003;17465;47.934;33.430;2023-04-08T07:37:37;20.40;19.80;11.60
30713;PMS7003;17465;47.934;33.430;2023-04-08T07:40:10;28.40;25.00;16.00
30713;PMS7003;17465;47.934;33.430;2023-04-08T07:42:44;20.40;20.40;13.20
30713;PMS7003;17465;47.934;33.430;2023-04-08T07:45:16;28.60;24.60;14.60
30713;PMS7003;17465;47.934;33.430;2023-04-08T07:48:04;35.00;30.00;20.00
30713;PMS7003;17465;47.934;33.430;2023-04-08T07:50:30;32.20;29.00;18.60
30713;PMS7003;17465;47.934;33.430;2023-04-08T07:53:02;36.25;31.00;20.00
30713;PMS7003;17465;47.934;33.430;2023-04-08T07:55:36;35.00;31.75;20.00
30713;PMS7003;17465;47.934;33.430;2023-04-08T07:58:08;30.50;30.00;18.25
30713;PMS7003;17465;47.934;33.430;2023-04-08T08:00:43;37.00;32.50;20.00
30713;PMS7003;17465;47.934;33.430;2023-04-08T08:03:16;31.75;30.50;19.25
30713;PMS7003;17465;47.934;33.430;2023-04-08T08:05:48;33.00;30.00;19.50
30713;PMS7003;17465;47.934;33.430;2023-04-08T08:08:22;31.50;29.50;17.25
30713;PMS7003;17465;47.934;33.430;2023-04-08T08:10:54;30.00;28.25;18.25
30713;PMS7003;17465;47.934;33.430;2023-04-08T08:13:28;33.00;28.75;15.75
30713;PMS7003;17465;47.934;33.430;2023-04-08T08:16:00;30.00;25.60;15.20
30713;PMS7003;17465;47.934;33.430;2023-04-08T08:18:36;28.80;25.20;16.20
30713;PMS7003;17465;47.934;33.430;2023-04-08T08:21:06;29.20;24.60;15.40
30713;PMS7003;17465;47.934;33.430;2023-04-08T08:23:37;23.40;22.40;15.00
30713;PMS7003;17465;47.934;33.430;2023-04-08T08:26:09;24.00;22.00;14.20
30713;PMS7003;17465;47.934;33.430;2023-04-08T08:28:40;29.00;24.60;16.80
30713;PMS7003;17465;47.934;33.430;2023-04-08T08:31:11;27.40;26.40;17.00
30713;PMS7003;17465;47.934;33.430;2023-04-08T08:33:42;24.40;23.00;16.00
30713;PMS7003;17465;47.934;33.430;2023-04-08T08:36:37;22.20;21.60;15.60
30713;PMS7003;17465;47.934;33.430;2023-04-08T08:39:08;25.80;24.60;15.40
30713;PMS7003;17465;47.934;33.430;2023-04-08T08:41:39;22.00;20.80;11.60
30713;PMS7003;17465;47.934;33.430;2023-04-08T08:44:10;26.00;24.40;17.00
30713;PMS7003;17465;47.934;33.430;2023-04-08T08:46:43;27.20;24.80;17.00
30713;PMS7003;17465;47.934;33.430;2023-04-08T08:49:19;23.40;21.60;15.00
30713;PMS7003;17465;47.934;33.430;2023-04-08T08:51:49;24.20;23.20;14.00
30713;PMS7003;17465;47.934;33.430;2023-04-08T08:54:23;26.60;26.00;15.60
30713;PMS7003;17465;47.934;33.430;2023-04-08T08:57:20;26.60;23.60;14.00
30713;PMS7003;17465;47.934;33.430;2023-04-08T08:59:51;21.00;20.40;13.60
30713;PMS7003;17465;47.934;33.430;2023-04-08T09:02:25;21.00;19.40;13.00
30713;PMS7003;17465;47.934;33.430;2023-04-08T09:04:59;17.60;16.80;11.60
30713;PMS7003;17465;47.934;33.430;2023-04-08T09:07:35;22.40;19.60;14.60
30713;PMS7003;17465;47.934;33.430;2023-04-08T09:10:10;20.20;19.80;13.20
30713;PMS7003;17465;47.934;33.430;2023-04-08T09:12:53;23.20;22.00;14.20
30713;PMS7003;17465;47.934;33.430;2023-04-08T09:15:32;18.00;16.40;11.00
30713;PMS7003;17465;47.934;33.430;2023-04-08T09:18:00;18.60;18.20;11.40
30713;PMS7003;17465;47.934;33.430;2023-04-08T09:20:37;20.20;18.40;14.20
30713;PMS7003;17465;47.934;33.430;2023-04-08T09:23:09;18.40;17.20;12.80
30713;PMS7003;17465;47.934;33.430;2023-04-08T09:26:05;17.60;16.00;11.80
30713;PMS7003;17465;47.934;33.430;2023-04-08T09:29:07;17.80;17.80;11.40
30713;PMS7003;17465;47.934;33.430;2023-04-08T09:31:42;17.80;17.00;11.40
30713;PMS7003;17465;47.934;33.430;2023-04-08T09:34:15;8.80;8.40;6.80
30713;PMS7003;17465;47.934;33.430;2023-04-08T09:36:48;15.40;15.40;11.20
30713;PMS7003;17465;47.934;33.430;2023-04-08T09:39:19;16.20;15.00;11.40
30713;PMS7003;17465;47.934;33.430;2023-04-08T09:41:50;14.60;13.80;9.40
30713;PMS7003;17465;47.934;33.430;2023-04-08T09:44:22;17.60;17.60;13.00
30713;PMS7003;17465;47.934;33.430;2023-04-08T09:47:01;21.40;19.80;12.80
30713;PMS7003;17465;47.934;33.430;2023-04-08T09:49:37;15.40;15.40;10.00
30713;PMS7003;17465;47.934;33.430;2023-04-08T09:52:28;15.20;15.20;10.60
30713;PMS7003;17465;47.934;33.430;2023-04-08T09:54:57;17.60;17.00;11.00
30713;PMS7003;17465;47.934;33.430;2023-04-08T09:57:39;17.60;16.80;10.60
30713;PMS7003;17465;47.934;33.430;2023-04-08T10:00:07;15.20;14.80;10.20
30713;PMS7003;17465;47.934;33.430;2023-04-08T10:05:38;18.20;15.20;8.60
30713;PMS7003;17465;47.934;33.430;2023-04-08T10:08:10;17.00;17.00;12.00
30713;PMS7003;17465;47.934;33.430;2023-04-08T10:10:43;16.80;16.80;12.20
30713;PMS7003;17465;47.934;33.430;2023-04-08T10:13:16;16.40;16.40;11.80
30713;PMS7003;17465;47.934;33.430;2023-04-08T10:15:49;19.80;18.80;12.00
30713;PMS7003;17465;47.934;33.430;2023-04-08T10:20:53;17.60;17.00;12.20
30713;PMS7003;17465;47.934;33.430;2023-04-08T10:23:51;13.00;12.80;7.80
30713;PMS7003;17465;47.934;33.430;2023-04-08T10:25:59;16.60;15.40;11.60
30713;PMS7003;17465;47.934;33.430;2023-04-08T10:28:30;18.80;18.80;11.80
30713;PMS7003;17465;47.934;33.430;2023-04-08T10:31:01;12.60;12.20;8.40
30713;PMS7003;17465;47.934;33.430;2023-04-08T10:33:32;16.00;15.80;9.80
30713;PMS7003;17465;47.934;33.430;2023-04-08T10:36:11;15.60;15.60;11.80
30713;PMS7003;17465;47.934;33.430;2023-04-08T10:38:42;15.40;15.40;10.40
30713;PMS7003;17465;47.934;33.430;2023-04-08T10:41:12;17.20;15.20;10.60
30713;PMS7003;17465;47.934;33.430;2023-04-08T10:43:45;13.40;13.40;10.00
30713;PMS7003;17465;47.934;33.430;2023-04-08T10:46:18;17.60;15.80;10.80
30713;PMS7003;17465;47.934;33.430;2023-04-08T10:48:59;12.60;12.60;6.60
30713;PMS7003;17465;47.934;33.430;2023-04-08T10:51:30;19.60;19.60;12.20
30713;PMS7003;17465;47.934;33.430;2023-04-08T10:54:10;19.00;19.00;13.20
30713;PMS7003;17465;47.934;33.430;2023-04-08T10:59:30;12.80;12.00;7.20
30713;PMS7003;17465;47.934;33.430;2023-04-08T11:02:01;15.80;15.80;10.00
30713;PMS7003;17465;47.934;33.430;2023-04-08T11:04:32;12.80;12.00;8.80
30713;PMS7003;17465;47.934;33.430;2023-04-08T11:07:10;17.20;15.00;9.60
30713;PMS7003;17465;47.934;33.430;2023-04-08T11:09:51;15.40;13.20;8.80
30713;PMS7003;17465;47.934;33.430;2023-04-08T11:12:23;12.80;11.00;7.00
30713;PMS7003;17465;47.934;33.430;2023-04-08T11:14:57;11.60;11.60;6.80
30713;PMS7003;17465;47.934;33.430;2023-04-08T11:17:34;9.20;8.20;5.80
30713;PMS7003;17465;47.934;33.430;2023-04-08T11:20:10;11.40;11.40;6.60
30713;PMS7003;17465;47.934;33.430;2023-04-08T11:22:48;1.60;1.60;1.40
30713;PMS7003;17465;47.934;33.430;2023-04-08T11:25:23;9.20;8.60;5.20
30713;PMS7003;17465;47.934;33.430;2023-04-08T11:27:56;10.40;10.40;8.20
30713;PMS7003;17465;47.934;33.430;2023-04-08T11:30:29;10.00;10.00;7.00
30713;PMS7003;17465;47.934;33.430;2023-04-08T11:33:01;13.20;13.20;8.20
30713;PMS7003;17465;47.934;33.430;2023-04-08T11:35:32;13.40;8.60;5.20
30713;PMS7003;17465;47.934;33.430;2023-04-08T11:38:07;12.40;12.00;7.80
30713;PMS7003;17465;47.934;33.430;2023-04-08T11:40:39;11.40;11.40;6.00
30713;PMS7003;17465;47.934;33.430;2023-04-08T11:43:11;15.80;15.40;8.80
30713;PMS7003;17465;47.934;33.430;2023-04-08T11:45:42;16.20;14.00;8.60
30713;PMS7003;17465;47.934;33.430;2023-04-08T11:48:14;13.80;13.80;8.60
30713;PMS7003;17465;47.934;33.430;2023-04-08T11:50:45;12.00;12.00;8.00
30713;PMS7003;17465;47.934;33.430;2023-04-08T11:53:16;18.20;14.20;10.00
30713;PMS7003;17465;47.934;33.430;2023-04-08T11:58:50;14.00;13.40;9.20
30713;PMS7003;17465;47.934;33.430;2023-04-08T12:01:21;12.80;12.80;9.40
30713;PMS7003;17465;47.934;33.430;2023-04-08T12:03:56;13.40;13.00;7.00
30713;PMS7003;17465;47.934;33.430;2023-04-08T12:06:28;10.20;10.20;6.60
30713;PMS7003;17465;47.934;33.430;2023-04-08T12:08:59;12.60;11.60;6.60
30713;PMS7003;17465;47.934;33.430;2023-04-08T12:11:50;14.40;14.40;9.00
30713;PMS7003;17465;47.934;33.430;2023-04-08T12:14:30;14.60;13.00;9.80
30713;PMS7003;17465;47.934;33.430;2023-04-08T12:16:58;14.80;13.60;10.00
30713;PMS7003;17465;47.934;33.430;2023-04-08T12:19:29;14.60;14.00;10.80
30713;PMS7003;17465;47.934;33.430;2023-04-08T12:22:02;17.20;14.40;9.80
30713;PMS7003;17465;47.934;33.430;2023-04-08T12:24:37;15.80;15.60;10.20
30713;PMS7003;17465;47.934;33.430;2023-04-08T12:27:07;16.60;15.60;11.60
30713;PMS7003;17465;47.934;33.430;2023-04-08T12:29:39;13.40;11.80;9.60
30713;PMS7003;17465;47.934;33.430;2023-04-08T12:32:12;16.60;14.60;10.00
30713;PMS7003;17465;47.934;33.430;2023-04-08T12:34:45;14.40;14.40;9.20
30713;PMS7003;17465;47.934;33.430;2023-04-08T12:37:15;33.40;28.80;18.80
30713;PMS7003;17465;47.934;33.430;2023-04-08T12:39:49;13.20;12.80;9.20
30713;PMS7003;17465;47.934;33.430;2023-04-08T12:42:22;17.60;14.00;8.60
30713;PMS7003;17465;47.934;33.430;2023-04-08T12:44:57;16.00;15.00;9.20
30713;PMS7003;17465;47.934;33.430;2023-04-08T12:47:25;15.20;15.20;10.20
30713;PMS7003;17465;47.934;33.430;2023-04-08T12:49:57;15.80;15.80;10.40
30713;PMS7003;17465;47.934;33.430;2023-04-08T12:52:38;8.80;8.00;5.40
30713;PMS7003;17465;47.934;33.430;2023-04-08T12:55:09;15.00;14.00;9.00
30713;PMS7003;17465;47.934;33.430;2023-04-08T12:57:40;16.20;15.20;11.20
30713;PMS7003;17465;47.934;33.430;2023-04-08T13:00:10;14.20;14.20;9.60
30713;PMS7003;17465;47.934;33.430;2023-04-08T13:02:42;16.40;16.40;9.60
30713;PMS7003;17465;47.934;33.430;2023-04-08T13:05:16;15.80;15.80;11.40
30713;PMS7003;17465;47.934;33.430;2023-04-08T13:07:48;15.60;15.60;11.80
30713;PMS7003;17465;47.934;33.430;2023-04-08T13:10:28;15.00;14.80;10.80
30713;PMS7003;17465;47.934;33.430;2023-04-08T13:13:02;14.80;13.80;9.40
30713;PMS7003;17465;47.934;33.430;2023-04-08T13:15:27;14.00;13.00;8.40
30713;PMS7003;17465;47.934;33.430;2023-04-08T13:18:01;13.00;13.00;9.60
30713;PMS7003;17465;47.934;33.430;2023-04-08T13:20:31;14.20;13.40;11.20
30713;PMS7003;17465;47.934;33.430;2023-04-08T13:23:06;14.40;14.20;9.40
30713;PMS7003;17465;47.934;33.430;2023-04-08T13:25:37;14.20;13.80;9.60
30713;PMS7003;17465;47.934;33.430;2023-04-08T13:28:09;13.00;13.00;8.40
30713;PMS7003;17465;47.934;33.430;2023-04-08T13:30:44;16.60;15.40;11.00
30713;PMS7003;17465;47.934;33.430;2023-04-08T13:33:13;13.80;13.80;8.40
30713;PMS7003;17465;47.934;33.430;2023-04-08T13:35:44;13.60;13.20;7.40
30713;PMS7003;17465;47.934;33.430;2023-04-08T13:38:16;10.00;10.00;7.40
30713;PMS7003;17465;47.934;33.430;2023-04-08T13:40:46;13.00;13.00;8.80
30713;PMS7003;17465;47.934;33.430;2023-04-08T13:43:17;15.80;14.60;9.80
30713;PMS7003;17465;47.934;33.430;2023-04-08T13:45:49;15.40;14.00;11.00
30713;PMS7003;17465;47.934;33.430;2023-04-08T13:48:38;13.00;13.00;9.00
30713;PMS7003;17465;47.934;33.430;2023-04-08T13:51:12;12.00;12.00;7.00
30713;PMS7003;17465;47.934;33.430;2023-04-08T13:53:43;16.60;15.80;9.60
30713;PMS7003;17465;47.934;33.430;2023-04-08T13:56:13;18.00;15.80;10.40
30713;PMS7003;17465;47.934;33.430;2023-04-08T13:58:47;4.80;4.80;4.80
30713;PMS7003;17465;47.934;33.430;2023-04-08T14:01:21;14.00;14.00;8.20
30713;PMS7003;17465;47.934;33.430;2023-04-08T14:04:38;16.00;16.00;11.60
30713;PMS7003;17465;47.934;33.430;2023-04-08T14:06:49;14.20;14.20;9.80
30713;PMS7003;17465;47.934;33.430;2023-04-08T14:09:21;16.00;16.00;10.40
30713;PMS7003;17465;47.934;33.430;2023-04-08T14:11:53;16.00;14.00;9.60
30713;PMS7003;17465;47.934;33.430;2023-04-08T14:14:32;12.00;12.00;6.80
30713;PMS7003;17465;47.934;33.430;2023-04-08T14:17:05;13.00;12.80;10.40
30713;PMS7003;17465;47.934;33.430;2023-04-08T14:19:37;15.00;14.60;9.80
30713;PMS7003;17465;47.934;33.430;2023-04-08T14:22:37;11.80;11.80;8.20